sensor_id;sensor_type;location;lat;lon;timestamp;pressure;altitude;pressure_sealevel;temperature;humidity
40708;BME280;26392;42.696;23.350;2022-09-09T00:01:43;95517.66;;;18.11;78.00
40708;BME280;26392;42.696;23.350;2022-09-09T00:04:27;95502.84;;;18.07;78.31
40708;BME280;26392;42.696;23.350;2022-09-09T00:07:37;95508.34;;;18.07;78.31
40708;BME280;26392;42.696;23.350;2022-09-09T00:10:09;95517.22;;;18.04;78.68
40708;BME280;26392;42.696;23.350;2022-09-09T00:15:23;95506.72;;;18.06;79.12
40708;BME280;26392;42.696;23.350;2022-09-09T00:20:23;95522.00;;;17.99;79.71
40708;BME280;26392;42.696;23.350;2022-09-09T00:23:09;95505.22;;;17.95;79.86
40708;BME280;26392;42.696;23.350;2022-09-09T00:28:30;95492.34;;;17.91;80.88
40708;BME280;26392;42.696;23.350;2022-09-09T00:31:07;95486.81;;;17.91;81.15
40708;BME280;26392;42.696;23.350;2022-09-09T00:33:36;95484.94;;;17.86;81.43
40708;BME280;26392;42.696;23.350;2022-09-09T00:36:02;95483.59;;;17.83;81.85
40708;BME280;26392;42.696;23.350;2022-09-09T00:38:33;95480.03;;;17.83;82.11
40708;BME280;26392;42.696;23.350;2022-09-09T00:41:07;95481.16;;;17.82;82.03
40708;BME280;26392;42.696;23.350;2022-09-09T00:43:37;95477.59;;;17.81;82.21
40708;BME280;26392;42.696;23.350;2022-09-09T01:08:01;95470.81;;;17.50;82.29
40708;BME280;26392;42.696;23.350;2022-09-09T01:13:01;95475.28;;;17.45;82.88
40708;BME280;26392;42.696;23.350;2022-09-09T01:15:30;95481.88;;;17.44;82.73
40708;BME280;26392;42.696;23.350;2022-09-09T01:18:04;95488.22;;;17.45;82.73
40708;BME280;26392;42.696;23.350;2022-09-09T01:24:03;95477.28;;;17.40;83.27
40708;BME280;26392;42.696;23.350;2022-09-09T01:26:42;95481.13;;;17.39;83.49
40708;BME280;26392;42.696;23.350;2022-09-09T01:29:09;95471.28;;;17.33;83.89
40708;BME280;26392;42.696;23.350;2022-09-09T01:31:41;95485.38;;;17.31;84.11
40708;BME280;26392;42.696;23.350;2022-09-09T01:34:15;95480.50;;;17.23;84.86
40708;BME280;26392;42.696;23.350;2022-09-09T01:36:47;95480.84;;;17.16;85.04
40708;BME280;26392;42.696;23.350;2022-09-09T01:39:16;95489.63;;;17.18;84.88
40708;BME280;26392;42.696;23.350;2022-09-09T01:41:42;95495.78;;;17.10;84.95
40708;BME280;26392;42.696;23.350;2022-09-09T01:44:08;95494.38;;;17.13;84.73
40708;BME280;26392;42.696;23.350;2022-09-09T01:46:35;95492.75;;;17.12;84.84
40708;BME280;26392;42.696;23.350;2022-09-09T01:49:02;95492.75;;;17.12;84.74
40708;BME280;26392;42.696;23.350;2022-09-09T01:51:29;95496.59;;;17.11;84.64
40708;BME280;26392;42.696;23.350;2022-09-09T01:53:55;95494.16;;;17.09;84.40
40708;BME280;26392;42.696;23.350;2022-09-09T01:56:40;95496.69;;;17.06;84.46
40708;BME280;26392;42.696;23.350;2022-09-09T02:04:50;95496.19;;;16.98;84.92
40708;BME280;26392;42.696;23.350;2022-09-09T02:07:40;95496.19;;;16.98;85.03
40708;BME280;26392;42.696;23.350;2022-09-09T02:10:37;95492.06;;;16.96;85.09
40708;BME280;26392;42.696;23.350;2022-09-09T02:13:10;95493.72;;;16.97;84.97
40708;BME280;26392;42.696;23.350;2022-09-09T02:16:07;95484.94;;;16.95;85.16
40708;BME280;26392;42.696;23.350;2022-09-09T02:21:09;95471.41;;;16.98;85.21
40708;BME280;26392;42.696;23.350;2022-09-09T02:23:38;95476.25;;;16.83;85.44
40708;BME280;26392;42.696;23.350;2022-09-09T02:26:06;95479.00;;;16.83;85.40
40708;BME280;26392;42.696;23.350;2022-09-09T02:28:34;95487.78;;;16.85;85.30
40708;BME280;26392;42.696;23.350;2022-09-09T02:31:02;95479.59;;;16.80;85.49
40708;BME280;26392;42.696;23.350;2022-09-09T02:33:32;95489.19;;;16.82;85.50
40708;BME280;26392;42.696;23.350;2022-09-09T02:36:01;95489.72;;;16.84;85.22
40708;BME280;26392;42.696;23.350;2022-09-09T02:38:33;95490.53;;;16.85;85.43
40708;BME280;26392;42.696;23.350;2022-09-09T02:41:00;95496.69;;;16.76;86.04
40708;BME280;26392;42.696;23.350;2022-09-09T02:43:31;95504.16;;;16.66;86.53
40708;BME280;26392;42.696;23.350;2022-09-09T02:51:24;95507.31;;;16.54;86.41
40708;BME280;26392;42.696;23.350;2022-09-09T02:56:52;95503.56;;;16.40;87.43
40708;BME280;26392;42.696;23.350;2022-09-09T02:59:21;95503.06;;;16.32;87.63
40708;BME280;26392;42.696;23.350;2022-09-09T03:01:47;95494.88;;;16.27;88.12
40708;BME280;26392;42.696;23.350;2022-09-09T03:04:13;95499.53;;;16.27;88.47
40708;BME280;26392;42.696;23.350;2022-09-09T03:06:38;95509.72;;;16.26;88.44
40708;BME280;26392;42.696;23.350;2022-09-09T03:09:04;95506.31;;;16.40;88.41
40708;BME280;26392;42.696;23.350;2022-09-09T03:11:30;95506.34;;;16.34;88.62
40708;BME280;26392;42.696;23.350;2022-09-09T03:13:55;95504.53;;;16.25;89.36
40708;BME280;26392;42.696;23.350;2022-09-09T03:16:24;95507.56;;;16.18;89.70
40708;BME280;26392;42.696;23.350;2022-09-09T03:18:50;95518.34;;;16.09;90.58
40708;BME280;26392;42.696;23.350;2022-09-09T03:21:15;95507.66;;;16.08;90.31
40708;BME280;26392;42.696;23.350;2022-09-09T03:23:41;95497.47;;;16.08;90.50
40708;BME280;26392;42.696;23.350;2022-09-09T03:26:07;95490.97;;;15.99;90.92
40708;BME280;26392;42.696;23.350;2022-09-09T03:28:32;95498.09;;;16.00;91.14
40708;BME280;26392;42.696;23.350;2022-09-09T03:31:02;95502.75;;;16.05;90.63
40708;BME280;26392;42.696;23.350;2022-09-09T03:33:28;95498.53;;;16.13;90.09
40708;BME280;26392;42.696;23.350;2022-09-09T03:35:55;95506.22;;;16.16;90.09
40708;BME280;26392;42.696;23.350;2022-09-09T03:38:22;95505.16;;;16.11;90.30
40708;BME280;26392;42.696;23.350;2022-09-09T03:40:53;95497.19;;;16.10;90.16
40708;BME280;26392;42.696;23.350;2022-09-09T03:43:21;95492.75;;;16.19;90.07
40708;BME280;26392;42.696;23.350;2022-09-09T03:45:47;95500.41;;;16.22;89.70
40708;BME280;26392;42.696;23.350;2022-09-09T03:48:13;95505.63;;;16.19;89.82
40708;BME280;26392;42.696;23.350;2022-09-09T03:50:38;95502.34;;;16.22;89.59
40708;BME280;26392;42.696;23.350;2022-09-09T03:53:04;95509.75;;;16.21;89.83
40708;BME280;26392;42.696;23.350;2022-09-09T03:55:31;95512.81;;;16.15;89.99
40708;BME280;26392;42.696;23.350;2022-09-09T03:57:57;95508.44;;;16.14;90.09
40708;BME280;26392;42.696;23.350;2022-09-09T04:00:23;95513.94;;;16.14;90.34
40708;BME280;26392;42.696;23.350;2022-09-09T04:02:48;95511.72;;;16.16;90.11
40708;BME280;26392;42.696;23.350;2022-09-09T04:05:14;95520.47;;;16.23;89.71
40708;BME280;26392;42.696;23.350;2022-09-09T04:07:40;95520.44;;;16.28;89.63
40708;BME280;26392;42.696;23.350;2022-09-09T04:10:06;95518.50;;;16.28;89.49
40708;BME280;26392;42.696;23.350;2022-09-09T04:12:33;95512.47;;;16.26;89.74
40708;BME280;26392;42.696;23.350;2022-09-09T04:14:59;95520.91;;;16.35;89.46
40708;BME280;26392;42.696;23.350;2022-09-09T04:17:27;95516.31;;;16.30;89.88
40708;BME280;26392;42.696;23.350;2022-09-09T04:19:52;95510.22;;;16.33;89.79
40708;BME280;26392;42.696;23.350;2022-09-09T04:22:18;95507.91;;;16.46;89.32
40708;BME280;26392;42.696;23.350;2022-09-09T04:24:43;95513.31;;;16.61;88.70
40708;BME280;26392;42.696;23.350;2022-09-09T04:27:08;95508.31;;;16.63;88.77
40708;BME280;26392;42.696;23.350;2022-09-09T04:29:34;95505.25;;;16.70;88.52
40708;BME280;26392;42.696;23.350;2022-09-09T04:32:00;95515.59;;;16.83;87.09
40708;BME280;26392;42.696;23.350;2022-09-09T04:34:25;95515.81;;;16.92;87.14
40708;BME280;26392;42.696;23.350;2022-09-09T04:36:51;95517.44;;;16.93;87.09
40708;BME280;26392;42.696;23.350;2022-09-09T04:39:20;95514.06;;;17.01;86.30
40708;BME280;26392;42.696;23.350;2022-09-09T04:41:45;95513.94;;;17.11;85.65
40708;BME280;26392;42.696;23.350;2022-09-09T04:44:12;95516.63;;;17.16;85.73
40708;BME280;26392;42.696;23.350;2022-09-09T04:46:37;95515.47;;;17.22;85.68
40708;BME280;26392;42.696;23.350;2022-09-09T04:49:03;95516.47;;;17.32;82.51
40708;BME280;26392;42.696;23.350;2022-09-09T04:51:28;95521.94;;;17.37;81.99
40708;BME280;26392;42.696;23.350;2022-09-09T04:53:56;95516.66;;;17.40;82.41
40708;BME280;26392;42.696;23.350;2022-09-09T04:56:21;95509.78;;;17.38;82.95
40708;BME280;26392;42.696;23.350;2022-09-09T04:58:47;95510.78;;;17.47;82.18
40708;BME280;26392;42.696;23.350;2022-09-09T05:01:18;95500.44;;;17.58;81.50
40708;BME280;26392;42.696;23.350;2022-09-09T05:03:44;95505.16;;;17.57;80.31
40708;BME280;26392;42.696;23.350;2022-09-09T05:06:15;95509.94;;;17.71;80.12
40708;BME280;26392;42.696;23.350;2022-09-09T05:08:42;95502.00;;;17.88;78.89
40708;BME280;26392;42.696;23.350;2022-09-09T05:11:21;95496.50;;;17.88;78.42
40708;BME280;26392;42.696;23.350;2022-09-09T05:13:50;95485.88;;;17.57;79.00
40708;BME280;26392;42.696;23.350;2022-09-09T05:16:16;95497.47;;;17.54;80.07
40708;BME280;26392;42.696;23.350;2022-09-09T05:18:42;95507.78;;;17.67;79.81
40708;BME280;26392;42.696;23.350;2022-09-09T05:21:09;95507.22;;;17.89;78.97
40708;BME280;26392;42.696;23.350;2022-09-09T05:23:35;95504.03;;;18.01;78.07
40708;BME280;26392;42.696;23.350;2022-09-09T05:26:01;95499.34;;;18.02;77.55
40708;BME280;26392;42.696;23.350;2022-09-09T05:28:27;95500.69;;;17.85;77.76
40708;BME280;26392;42.696;23.350;2022-09-09T05:31:04;95499.88;;;18.04;77.91
40708;BME280;26392;42.696;23.350;2022-09-09T05:33:31;95498.38;;;17.93;77.95
40708;BME280;26392;42.696;23.350;2022-09-09T05:36:07;95492.84;;;18.11;77.86
40708;BME280;26392;42.696;23.350;2022-09-09T05:38:34;95490.97;;;18.26;77.54
40708;BME280;26392;42.696;23.350;2022-09-09T05:41:00;95489.69;;;18.37;77.57
40708;BME280;26392;42.696;23.350;2022-09-09T05:43:28;95495.41;;;18.60;76.30
40708;BME280;26392;42.696;23.350;2022-09-09T05:48:30;95503.47;;;18.75;75.39
40708;BME280;26392;42.696;23.350;2022-09-09T05:50:57;95508.16;;;18.74;75.41
40708;BME280;26392;42.696;23.350;2022-09-09T05:53:23;95506.66;;;18.82;75.18
40708;BME280;26392;42.696;23.350;2022-09-09T05:55:49;95500.31;;;18.95;75.29
40708;BME280;26392;42.696;23.350;2022-09-09T05:58:15;95496.47;;;19.10;73.58
40708;BME280;26392;42.696;23.350;2022-09-09T06:00:42;95499.97;;;19.16;72.35
40708;BME280;26392;42.696;23.350;2022-09-09T06:03:12;95506.81;;;19.32;69.50
40708;BME280;26392;42.696;23.350;2022-09-09T06:05:37;95509.00;;;19.35;70.70
40708;BME280;26392;42.696;23.350;2022-09-09T06:08:03;95511.44;;;19.51;69.48
40708;BME280;26392;42.696;23.350;2022-09-09T06:10:29;95520.88;;;19.63;67.87
40708;BME280;26392;42.696;23.350;2022-09-09T06:12:54;95510.91;;;19.35;67.60
40708;BME280;26392;42.696;23.350;2022-09-09T06:15:19;95512.84;;;19.34;66.56
40708;BME280;26392;42.696;23.350;2022-09-09T06:17:45;95512.88;;;19.62;67.42
40708;BME280;26392;42.696;23.350;2022-09-09T06:20:11;95507.03;;;19.77;67.57
40708;BME280;26392;42.696;23.350;2022-09-09T06:22:40;95508.78;;;19.87;65.24
40708;BME280;26392;42.696;23.350;2022-09-09T06:25:07;95512.84;;;20.03;65.38
40708;BME280;26392;42.696;23.350;2022-09-09T06:27:33;95517.09;;;20.23;65.22
40708;BME280;26392;42.696;23.350;2022-09-09T06:29:58;95515.22;;;20.32;65.91
40708;BME280;26392;42.696;23.350;2022-09-09T06:32:23;95516.84;;;20.47;63.16
40708;BME280;26392;42.696;23.350;2022-09-09T06:34:49;95508.69;;;20.65;62.54
40708;BME280;26392;42.696;23.350;2022-09-09T06:37:14;95513.66;;;20.76;62.27
40708;BME280;26392;42.696;23.350;2022-09-09T06:39:40;95512.50;;;20.55;61.66
40708;BME280;26392;42.696;23.350;2022-09-09T06:42:06;95499.06;;;20.62;62.40
40708;BME280;26392;42.696;23.350;2022-09-09T06:44:34;95498.19;;;20.75;63.51
40708;BME280;26392;42.696;23.350;2022-09-09T06:46:59;95497.56;;;20.78;61.77
40708;BME280;26392;42.696;23.350;2022-09-09T06:49:24;95490.38;;;20.55;61.58
40708;BME280;26392;42.696;23.350;2022-09-09T06:51:50;95499.34;;;20.61;62.73
40708;BME280;26392;42.696;23.350;2022-09-09T06:54:17;95505.97;;;20.96;62.18
40708;BME280;26392;42.696;23.350;2022-09-09T06:56:43;95513.22;;;21.14;61.32
40708;BME280;26392;42.696;23.350;2022-09-09T06:59:11;95520.28;;;21.20;59.23
40708;BME280;26392;42.696;23.350;2022-09-09T07:01:39;95517.22;;;21.31;59.84
40708;BME280;26392;42.696;23.350;2022-09-09T07:04:06;95520.66;;;21.36;59.40
40708;BME280;26392;42.696;23.350;2022-09-09T07:06:36;95517.00;;;21.50;58.86
40708;BME280;26392;42.696;23.350;2022-09-09T07:09:04;95520.16;;;21.57;58.62
40708;BME280;26392;42.696;23.350;2022-09-09T07:11:36;95511.75;;;21.79;57.50
40708;BME280;26392;42.696;23.350;2022-09-09T07:14:02;95504.94;;;22.03;57.20
40708;BME280;26392;42.696;23.350;2022-09-09T07:16:28;95505.75;;;22.12;58.45
40708;BME280;26392;42.696;23.350;2022-09-09T07:18:54;95509.56;;;22.33;57.50
40708;BME280;26392;42.696;23.350;2022-09-09T07:23:49;95506.13;;;22.63;55.69
40708;BME280;26392;42.696;23.350;2022-09-09T07:26:17;95505.66;;;22.43;56.37
40708;BME280;26392;42.696;23.350;2022-09-09T07:28:47;95497.66;;;22.59;56.07
40708;BME280;26392;42.696;23.350;2022-09-09T07:31:15;95501.88;;;22.91;56.09
40708;BME280;26392;42.696;23.350;2022-09-09T07:33:42;95500.41;;;23.11;53.99
40708;BME280;26392;42.696;23.350;2022-09-09T07:36:31;95499.53;;;23.28;53.30
40708;BME280;26392;42.696;23.350;2022-09-09T07:39:03;95481.34;;;23.39;52.81
40708;BME280;26392;42.696;23.350;2022-09-09T07:41:41;95486.22;;;23.42;52.64
40708;BME280;26392;42.696;23.350;2022-09-09T07:44:12;95498.13;;;23.52;51.44
40708;BME280;26392;42.696;23.350;2022-09-09T07:46:38;95500.53;;;23.71;53.87
40708;BME280;26392;42.696;23.350;2022-09-09T07:49:07;95506.09;;;23.62;50.08
40708;BME280;26392;42.696;23.350;2022-09-09T07:51:39;95505.75;;;24.02;49.56
40708;BME280;26392;42.696;23.350;2022-09-09T07:54:08;95492.63;;;24.32;50.31
40708;BME280;26392;42.696;23.350;2022-09-09T07:56:35;95495.53;;;24.35;49.84
40708;BME280;26392;42.696;23.350;2022-09-09T07:59:01;95493.19;;;24.67;48.96
40708;BME280;26392;42.696;23.350;2022-09-09T08:01:30;95495.19;;;25.00;48.48
40708;BME280;26392;42.696;23.350;2022-09-09T08:04:04;95491.38;;;25.38;46.99
40708;BME280;26392;42.696;23.350;2022-09-09T08:06:34;95487.16;;;25.32;46.84
40708;BME280;26392;42.696;23.350;2022-09-09T08:09:00;95503.38;;;25.17;46.85
40708;BME280;26392;42.696;23.350;2022-09-09T08:11:28;95492.66;;;25.07;47.01
40708;BME280;26392;42.696;23.350;2022-09-09T08:13:55;95488.00;;;25.11;46.69
40708;BME280;26392;42.696;23.350;2022-09-09T08:16:26;95489.28;;;25.01;47.31
40708;BME280;26392;42.696;23.350;2022-09-09T08:18:52;95483.78;;;25.26;47.00
40708;BME280;26392;42.696;23.350;2022-09-09T08:21:24;95483.13;;;25.41;46.48
40708;BME280;26392;42.696;23.350;2022-09-09T08:23:54;95486.28;;;25.77;47.13
40708;BME280;26392;42.696;23.350;2022-09-09T08:26:21;95485.72;;;25.96;46.28
40708;BME280;26392;42.696;23.350;2022-09-09T08:28:47;95479.31;;;26.07;46.51
40708;BME280;26392;42.696;23.350;2022-09-09T08:31:15;95482.19;;;26.36;45.60
40708;BME280;26392;42.696;23.350;2022-09-09T08:33:42;95479.72;;;26.59;44.84
40708;BME280;26392;42.696;23.350;2022-09-09T08:36:12;95483.81;;;26.89;43.46
40708;BME280;26392;42.696;23.350;2022-09-09T08:38:41;95480.75;;;26.94;43.93
40708;BME280;26392;42.696;23.350;2022-09-09T08:47:46;95474.72;;;27.36;43.00
40708;BME280;26392;42.696;23.350;2022-09-09T08:49:50;95474.81;;;27.56;41.74
40708;BME280;26392;42.696;23.350;2022-09-09T08:52:30;95467.44;;;27.79;42.16
40708;BME280;26392;42.696;23.350;2022-09-09T08:55:10;95469.53;;;27.82;42.66
40708;BME280;26392;42.696;23.350;2022-09-09T08:57:38;95461.09;;;27.66;42.20
40708;BME280;26392;42.696;23.350;2022-09-09T09:00:04;95462.66;;;27.80;42.15
40708;BME280;26392;42.696;23.350;2022-09-09T09:10:46;95464.53;;;27.92;41.66
40708;BME280;26392;42.696;23.350;2022-09-09T09:14:09;95462.31;;;27.81;41.63
40708;BME280;26392;42.696;23.350;2022-09-09T09:16:35;95462.25;;;28.13;41.22
40708;BME280;26392;42.696;23.350;2022-09-09T09:19:03;95453.16;;;28.36;42.09
40708;BME280;26392;42.696;23.350;2022-09-09T09:21:43;95457.28;;;28.58;41.51
40708;BME280;26392;42.696;23.350;2022-09-09T09:24:19;95456.09;;;28.59;41.58
40708;BME280;26392;42.696;23.350;2022-09-09T09:26:46;95460.81;;;28.74;40.51
40708;BME280;26392;42.696;23.350;2022-09-09T09:29:15;95455.34;;;28.81;40.08
40708;BME280;26392;42.696;23.350;2022-09-09T09:31:48;95457.34;;;28.81;40.99
40708;BME280;26392;42.696;23.350;2022-09-09T09:34:16;95465.28;;;28.98;41.24
40708;BME280;26392;42.696;23.350;2022-09-09T09:36:45;95453.97;;;29.10;41.65
40708;BME280;26392;42.696;23.350;2022-09-09T09:39:29;95459.47;;;29.26;39.91
40708;BME280;26392;42.696;23.350;2022-09-09T09:41:55;95445.63;;;29.37;39.52
40708;BME280;26392;42.696;23.350;2022-09-09T09:44:32;95441.06;;;29.29;39.29
40708;BME280;26392;42.696;23.350;2022-09-09T09:49:33;95434.75;;;28.73;40.17
40708;BME280;26392;42.696;23.350;2022-09-09T09:52:03;95439.78;;;28.45;40.34
40708;BME280;26392;42.696;23.350;2022-09-09T09:54:41;95425.22;;;28.39;41.18
40708;BME280;26392;42.696;23.350;2022-09-09T09:57:14;95429.47;;;28.49;41.53
40708;BME280;26392;42.696;23.350;2022-09-09T09:59:40;95423.25;;;28.59;41.06
40708;BME280;26392;42.696;23.350;2022-09-09T10:04:42;95424.28;;;28.51;41.71
40708;BME280;26392;42.696;23.350;2022-09-09T10:07:15;95424.22;;;28.67;40.89
40708;BME280;26392;42.696;23.350;2022-09-09T10:09:42;95433.28;;;28.99;41.43
40708;BME280;26392;42.696;23.350;2022-09-09T10:12:47;95432.63;;;28.31;41.40
40708;BME280;26392;42.696;23.350;2022-09-09T10:15:41;95437.19;;;28.55;40.42
40708;BME280;26392;42.696;23.350;2022-09-09T10:36:29;95449.13;;;27.06;44.14
40708;BME280;26392;42.696;23.350;2022-09-09T10:39:03;95442.81;;;27.09;44.47
40708;BME280;26392;42.696;23.350;2022-09-09T10:41:54;95442.59;;;27.02;45.25
40708;BME280;26392;42.696;23.350;2022-09-09T10:44:58;95442.59;;;27.02;45.91
40708;BME280;26392;42.696;23.350;2022-09-09T10:53:21;95448.47;;;27.41;44.40
40708;BME280;26392;42.696;23.350;2022-09-09T10:55:59;95453.25;;;27.40;44.40
40708;BME280;26392;42.696;23.350;2022-09-09T10:58:42;95441.84;;;27.33;44.68
40708;BME280;26392;42.696;23.350;2022-09-09T11:01:26;95449.19;;;27.38;45.18
40708;BME280;26392;42.696;23.350;2022-09-09T11:04:03;95446.75;;;27.52;44.07
40708;BME280;26392;42.696;23.350;2022-09-09T11:06:36;95449.44;;;27.33;44.71
40708;BME280;26392;42.696;23.350;2022-09-09T11:09:05;95438.91;;;27.14;45.36
40708;BME280;26392;42.696;23.350;2022-09-09T11:11:39;95447.09;;;27.19;46.02
40708;BME280;26392;42.696;23.350;2022-09-09T11:14:31;95444.41;;;27.22;45.33
40708;BME280;26392;42.696;23.350;2022-09-09T11:17:02;95434.91;;;27.27;45.20
40708;BME280;26392;42.696;23.350;2022-09-09T11:19:35;95428.16;;;27.28;46.02
40708;BME280;26392;42.696;23.350;2022-09-09T11:22:37;95428.44;;;27.11;47.06
40708;BME280;26392;42.696;23.350;2022-09-09T11:25:07;95426.47;;;26.95;45.99
40708;BME280;26392;42.696;23.350;2022-09-09T11:39:35;95394.84;;;27.55;45.37
40708;BME280;26392;42.696;23.350;2022-09-09T11:42:16;95390.19;;;27.78;45.69
40708;BME280;26392;42.696;23.350;2022-09-09T11:44:43;95383.94;;;27.81;44.94
40708;BME280;26392;42.696;23.350;2022-09-09T11:49:48;95373.38;;;27.59;45.26
40708;BME280;26392;42.696;23.350;2022-09-09T11:54:48;95341.56;;;27.83;44.73
40708;BME280;26392;42.696;23.350;2022-09-09T11:57:35;95341.50;;;27.79;45.65
40708;BME280;26392;42.696;23.350;2022-09-09T12:00:00;95351.94;;;27.82;45.01
40708;BME280;26392;42.696;23.350;2022-09-09T12:02:30;95353.28;;;27.73;45.34
40708;BME280;26392;42.696;23.350;2022-09-09T12:05:08;95352.53;;;27.92;45.60
40708;BME280;26392;42.696;23.350;2022-09-09T12:12:47;95343.84;;;28.71;43.90
40708;BME280;26392;42.696;23.350;2022-09-09T12:17:46;95339.00;;;28.91;44.55
40708;BME280;26392;42.696;23.350;2022-09-09T12:31:17;95328.53;;;28.88;44.56
40708;BME280;26392;42.696;23.350;2022-09-09T12:33:47;95329.72;;;28.67;45.02
40708;BME280;26392;42.696;23.350;2022-09-09T12:36:35;95320.56;;;28.70;45.60
40708;BME280;26392;42.696;23.350;2022-09-09T12:39:33;95319.13;;;28.18;46.35
40708;BME280;26392;42.696;23.350;2022-09-09T12:41:56;95313.00;;;27.93;46.43
40708;BME280;26392;42.696;23.350;2022-09-09T12:44:25;95304.72;;;27.81;47.24
40708;BME280;26392;42.696;23.350;2022-09-09T12:46:53;95304.75;;;27.65;47.19
40708;BME280;26392;42.696;23.350;2022-09-09T12:49:36;95303.84;;;27.61;47.24
40708;BME280;26392;42.696;23.350;2022-09-09T12:52:25;95295.72;;;27.56;48.68
40708;BME280;26392;42.696;23.350;2022-09-09T12:54:52;95303.97;;;27.49;47.91
40708;BME280;26392;42.696;23.350;2022-09-09T12:57:19;95293.84;;;27.60;47.40
40708;BME280;26392;42.696;23.350;2022-09-09T12:59:47;95297.75;;;27.91;46.96
40708;BME280;26392;42.696;23.350;2022-09-09T13:02:22;95292.16;;;28.10;46.34
40708;BME280;26392;42.696;23.350;2022-09-09T13:04:47;95296.56;;;28.30;46.30
40708;BME280;26392;42.696;23.350;2022-09-09T13:07:15;95289.78;;;28.51;45.76
40708;BME280;26392;42.696;23.350;2022-09-09T13:09:42;95295.69;;;28.65;45.52
40708;BME280;26392;42.696;23.350;2022-09-09T13:12:14;95287.81;;;28.32;45.68
40708;BME280;26392;42.696;23.350;2022-09-09T13:14:43;95286.25;;;28.54;46.97
40708;BME280;26392;42.696;23.350;2022-09-09T13:17:26;95287.47;;;28.37;46.18
40708;BME280;26392;42.696;23.350;2022-09-09T13:19:53;95287.06;;;28.35;46.90
40708;BME280;26392;42.696;23.350;2022-09-09T13:25:00;95278.50;;;28.47;46.42
40708;BME280;26392;42.696;23.350;2022-09-09T13:27:33;95261.41;;;28.52;45.83
40708;BME280;26392;42.696;23.350;2022-09-09T13:29:59;95264.50;;;28.70;45.17
40708;BME280;26392;42.696;23.350;2022-09-09T13:32:26;95260.00;;;28.43;45.53
40708;BME280;26392;42.696;23.350;2022-09-09T13:34:55;95262.44;;;28.25;46.75
40708;BME280;26392;42.696;23.350;2022-09-09T13:37:33;95252.50;;;28.08;46.83
40708;BME280;26392;42.696;23.350;2022-09-09T13:40:00;95262.91;;;27.72;47.51
40708;BME280;26392;42.696;23.350;2022-09-09T13:42:29;95266.44;;;27.85;47.87
40708;BME280;26392;42.696;23.350;2022-09-09T13:44:57;95255.69;;;28.06;47.20
40708;BME280;26392;42.696;23.350;2022-09-09T13:47:31;95245.41;;;28.14;46.60
40708;BME280;26392;42.696;23.350;2022-09-09T13:49:57;95241.69;;;27.87;48.00
40708;BME280;26392;42.696;23.350;2022-09-09T13:52:23;95242.03;;;27.85;47.63
40708;BME280;26392;42.696;23.350;2022-09-09T13:54:50;95240.97;;;27.74;48.70
40708;BME280;26392;42.696;23.350;2022-09-09T13:57:24;95240.84;;;28.06;48.25
40708;BME280;26392;42.696;23.350;2022-09-09T13:59:52;95235.84;;;28.15;47.31
40708;BME280;26392;42.696;23.350;2022-09-09T14:02:18;95235.38;;;28.32;46.89
40708;BME280;26392;42.696;23.350;2022-09-09T14:04:44;95244.53;;;28.49;46.67
40708;BME280;26392;42.696;23.350;2022-09-09T14:07:14;95243.09;;;28.59;47.10
40708;BME280;26392;42.696;23.350;2022-09-09T14:09:41;95242.22;;;28.77;48.55
40708;BME280;26392;42.696;23.350;2022-09-09T14:12:11;95236.34;;;28.86;45.44
40708;BME280;26392;42.696;23.350;2022-09-09T14:14:37;95227.16;;;28.86;45.58
40708;BME280;26392;42.696;23.350;2022-09-09T14:17:02;95228.25;;;29.04;45.57
40708;BME280;26392;42.696;23.350;2022-09-09T14:19:29;95223.84;;;29.03;44.97
40708;BME280;26392;42.696;23.350;2022-09-09T14:21:57;95225.28;;;28.93;45.04
40708;BME280;26392;42.696;23.350;2022-09-09T14:24:23;95223.84;;;29.03;45.52
40708;BME280;26392;42.696;23.350;2022-09-09T14:26:49;95215.78;;;29.01;45.02
40708;BME280;26392;42.696;23.350;2022-09-09T14:29:14;95212.38;;;28.89;44.95
40708;BME280;26392;42.696;23.350;2022-09-09T14:31:40;95222.47;;;28.93;45.73
40708;BME280;26392;42.696;23.350;2022-09-09T14:34:05;95228.25;;;28.81;44.67
40708;BME280;26392;42.696;23.350;2022-09-09T14:36:31;95217.41;;;28.56;45.25
40708;BME280;26392;42.696;23.350;2022-09-09T14:38:57;95223.72;;;28.50;46.12
40708;BME280;26392;42.696;23.350;2022-09-09T14:41:23;95218.28;;;28.38;46.67
40708;BME280;26392;42.696;23.350;2022-09-09T14:43:50;95216.81;;;28.24;46.20
40708;BME280;26392;42.696;23.350;2022-09-09T14:46:18;95218.31;;;28.18;46.62
40708;BME280;26392;42.696;23.350;2022-09-09T14:48:44;95217.28;;;28.07;46.89
40708;BME280;26392;42.696;23.350;2022-09-09T14:51:13;95219.88;;;27.96;47.47
40708;BME280;26392;42.696;23.350;2022-09-09T14:53:40;95215.16;;;27.81;48.24
40708;BME280;26392;42.696;23.350;2022-09-09T14:56:11;95216.81;;;27.66;48.44
40708;BME280;26392;42.696;23.350;2022-09-09T14:58:37;95214.97;;;27.54;47.66
40708;BME280;26392;42.696;23.350;2022-09-09T15:01:07;95215.53;;;27.44;47.21
40708;BME280;26392;42.696;23.350;2022-09-09T15:03:35;95218.16;;;27.17;48.35
40708;BME280;26392;42.696;23.350;2022-09-09T15:06:11;95221.84;;;26.90;49.16
40708;BME280;26392;42.696;23.350;2022-09-09T15:08:39;95223.03;;;26.89;49.25
40708;BME280;26392;42.696;23.350;2022-09-09T15:11:06;95232.94;;;26.70;49.52
40708;BME280;26392;42.696;23.350;2022-09-09T15:13:36;95228.81;;;26.64;49.92
40708;BME280;26392;42.696;23.350;2022-09-09T15:16:13;95229.34;;;26.70;50.17
40708;BME280;26392;42.696;23.350;2022-09-09T15:18:39;95237.47;;;26.75;50.63
40708;BME280;26392;42.696;23.350;2022-09-09T15:21:13;95228.91;;;26.68;51.11
40708;BME280;26392;42.696;23.350;2022-09-09T15:23:39;95228.44;;;26.66;50.91
40708;BME280;26392;42.696;23.350;2022-09-09T15:26:06;95233.94;;;26.62;51.02